createdAt,value
2019-04-29T00:02:07.189Z,98621.00
2019-04-29T00:04:36.800Z,98618.00
2019-04-29T00:07:06.379Z,98620.00
2019-04-29T00:09:36.010Z,98616.00
2019-04-29T00:12:05.722Z,98615.00
2019-04-29T00:14:37.790Z,98623.00
2019-04-29T00:17:09.548Z,98613.00
2019-04-29T00:19:40.707Z,98625.00
2019-04-29T00:22:10.300Z,98621.00
2019-04-29T00:24:39.908Z,98618.00
2019-04-29T00:27:09.515Z,98625.00
2019-04-29T00:29:39.019Z,98623.00
2019-04-29T00:32:09.121Z,98620.00
2019-04-29T00:34:38.751Z,98622.00
2019-04-29T00:37:28.426Z,98620.00
2019-04-29T00:40:15.441Z,98617.00
2019-04-29T00:43:01.321Z,98616.00
2019-04-29T00:45:30.937Z,98626.00
2019-04-29T00:48:00.202Z,98636.00
2019-04-29T00:50:29.843Z,98632.00
2019-04-29T00:52:59.356Z,98628.00
2019-04-29T00:55:30.266Z,98621.00
2019-04-29T00:57:59.532Z,98620.00
2019-04-29T01:00:33.749Z,98616.00
2019-04-29T01:03:03.282Z,98626.00
2019-04-29T01:05:32.818Z,98623.00
2019-04-29T01:08:02.423Z,98617.00
2019-04-29T01:10:31.756Z,98626.00
2019-04-29T01:13:01.332Z,98629.00
2019-04-29T01:15:30.602Z,98630.00
2019-04-29T01:18:00.174Z,98630.00
2019-04-29T01:20:29.748Z,98625.00
2019-04-29T01:22:59.348Z,98634.00
2019-04-29T01:25:28.614Z,98639.00
2019-04-29T01:28:03.289Z,98630.00
2019-04-29T01:30:55.513Z,98634.00
2019-04-29T01:33:25.124Z,98629.00
2019-04-29T01:36:05.075Z,98632.00
2019-04-29T01:38:34.274Z,98629.00
2019-04-29T01:41:05.249Z,98637.00
2019-04-29T01:43:52.501Z,98638.00
2019-04-29T01:46:21.764Z,98638.00
2019-04-29T01:48:51.027Z,98639.00
2019-04-29T01:51:20.290Z,98639.00
2019-04-29T01:53:49.836Z,98644.00
2019-04-29T01:56:19.100Z,98632.00
2019-04-29T01:58:49.056Z,98639.00
2019-04-29T02:01:18.660Z,98640.00
2019-04-29T02:03:48.272Z,98640.00
2019-04-29T02:06:17.979Z,98640.00
2019-04-29T02:08:48.099Z,98637.00
2019-04-29T02:11:17.358Z,98630.00
2019-04-29T02:13:46.618Z,98641.00
2019-04-29T02:16:16.121Z,98639.00
2019-04-29T02:18:45.628Z,98636.00
2019-04-29T02:21:15.138Z,98643.00
2019-04-29T02:23:48.729Z,98646.00
2019-04-29T02:26:18.325Z,98644.00
2019-04-29T02:28:47.932Z,98634.00
2019-04-29T02:31:35.061Z,98640.00
2019-04-29T02:34:04.907Z,98638.00
2019-04-29T02:36:34.171Z,98642.00
2019-04-29T02:39:18.175Z,98635.00
2019-04-29T02:41:49.153Z,98632.00
2019-04-29T02:44:18.472Z,98632.00
2019-04-29T02:46:47.743Z,98635.00
2019-04-29T02:49:17.002Z,98638.00
2019-04-29T02:51:50.860Z,98634.00
2019-04-29T02:54:20.563Z,98641.00
2019-04-29T02:57:03.280Z,98643.00
2019-04-29T02:59:52.610Z,98637.00
2019-04-29T03:02:23.815Z,98643.00
2019-04-29T03:05:12.674Z,98640.00
2019-04-29T03:07:42.668Z,98635.00
2019-04-29T03:10:12.685Z,98630.00
2019-04-29T03:12:42.293Z,98632.00
2019-04-29T03:15:12.457Z,98624.00
2019-04-29T03:17:42.268Z,98629.00
2019-04-29T03:20:22.141Z,98632.00
2019-04-29T03:22:53.318Z,98630.00
2019-04-29T03:25:22.825Z,98634.00
2019-04-29T03:27:52.439Z,98625.00
2019-04-29T03:30:21.776Z,98626.00
2019-04-29T03:32:51.047Z,98627.00
2019-04-29T03:35:20.355Z,98627.00
2019-04-29T03:37:49.624Z,98625.00
2019-04-29T03:40:18.884Z,98624.00
2019-04-29T03:42:48.447Z,98634.00
2019-04-29T03:45:17.712Z,98626.00
2019-04-29T03:47:46.975Z,98631.00
2019-04-29T03:50:16.303Z,98626.00
2019-04-29T03:52:45.568Z,98630.00
2019-04-29T03:55:15.154Z,98624.00
2019-04-29T03:57:44.417Z,98617.00
2019-04-29T04:00:17.432Z,98625.00
2019-04-29T04:02:48.692Z,98627.00
2019-04-29T04:05:35.374Z,98626.00
2019-04-29T04:08:06.401Z,98625.00
2019-04-29T04:10:35.659Z,98623.00
2019-04-29T04:13:05.173Z,98626.00
2019-04-29T04:15:34.743Z,98629.00
2019-04-29T04:18:05.963Z,98638.00
2019-04-29T04:20:35.598Z,98637.00
2019-04-29T04:23:04.948Z,98640.00
2019-04-29T04:25:34.517Z,98639.00
2019-04-29T04:28:03.796Z,98645.00
2019-04-29T04:30:33.319Z,98645.00
2019-04-29T04:33:02.924Z,98644.00
2019-04-29T04:35:32.184Z,98654.00
2019-04-29T04:38:01.694Z,98643.00
2019-04-29T04:40:33.211Z,98649.00
2019-04-29T04:43:02.469Z,98653.00
2019-04-29T04:45:31.734Z,98654.00
2019-04-29T04:48:01.002Z,98663.00
2019-04-29T04:50:30.585Z,98662.00
2019-04-29T04:52:59.860Z,98665.00
2019-04-29T04:55:30.830Z,98660.00
2019-04-29T04:58:00.097Z,98660.00
2019-04-29T05:00:30.998Z,98666.00
2019-04-29T05:03:00.520Z,98669.00
2019-04-29T05:05:29.850Z,98666.00
2019-04-29T05:07:59.474Z,98666.00
2019-04-29T05:10:28.903Z,98669.00
2019-04-29T05:12:58.377Z,98675.00
2019-04-29T05:15:51.815Z,98671.00
2019-04-29T05:21:41.965Z,98679.00
2019-04-29T05:24:11.227Z,98677.00
2019-04-29T05:26:40.480Z,98679.00
2019-04-29T05:29:09.744Z,98677.00
2019-04-29T05:31:39.009Z,98675.00
2019-04-29T05:34:08.269Z,98679.00
2019-04-29T05:36:45.125Z,98677.00
2019-04-29T05:39:16.030Z,98684.00
2019-04-29T05:41:45.290Z,98673.00
2019-04-29T05:44:22.283Z,98691.00
2019-04-29T05:46:56.662Z,98690.00
2019-04-29T05:49:27.562Z,98697.00
2019-04-29T05:52:01.998Z,98707.00
2019-04-29T05:54:32.104Z,98700.00
2019-04-29T05:57:02.324Z,98705.00
2019-04-29T05:59:31.596Z,98697.00
2019-04-29T06:02:00.852Z,98709.00
2019-04-29T06:04:30.128Z,98689.00
2019-04-29T06:06:59.380Z,98695.00
2019-04-29T06:09:28.638Z,98687.00
2019-04-29T06:11:57.905Z,98690.00
2019-04-29T06:14:27.163Z,98699.00
2019-04-29T06:16:57.487Z,98692.00
2019-04-29T06:19:27.398Z,98703.00
2019-04-29T06:21:56.655Z,98696.00
2019-04-29T06:24:25.912Z,98710.00
2019-04-29T06:26:55.190Z,98712.00
2019-04-29T06:29:24.474Z,98715.00
2019-04-29T06:31:54.240Z,98719.00
2019-04-29T06:34:23.840Z,98722.00
2019-04-29T06:36:53.449Z,98727.00
2019-04-29T06:39:22.972Z,98728.00
2019-04-29T06:41:52.259Z,98724.00
2019-04-29T06:44:21.527Z,98718.00
2019-04-29T06:46:54.526Z,98720.00
2019-04-29T06:49:22.088Z,98714.00
2019-04-29T06:51:51.606Z,98725.00
2019-04-29T06:54:20.885Z,98715.00
2019-04-29T06:56:50.412Z,98722.00
2019-04-29T06:59:19.695Z,98724.00
2019-04-29T07:01:48.966Z,98733.00
2019-04-29T07:04:18.249Z,98722.00
2019-04-29T07:06:57.333Z,98727.00
2019-04-29T07:09:18.812Z,98728.00
2019-04-29T07:11:48.088Z,98729.00
2019-04-29T07:14:17.359Z,98726.00
2019-04-29T07:16:46.632Z,98732.00
2019-04-29T07:19:15.905Z,98725.00
2019-04-29T07:21:47.019Z,98723.00
2019-04-29T07:24:16.170Z,98725.00
2019-04-29T07:26:45.444Z,98726.00
2019-04-29T07:29:14.731Z,98726.00
2019-04-29T07:31:44.078Z,98718.00
2019-04-29T07:34:13.515Z,98711.00
2019-04-29T07:36:42.793Z,98723.00
2019-04-29T07:39:12.067Z,98722.00
2019-04-29T07:41:41.341Z,98727.00
2019-04-29T07:44:13.604Z,98722.00
2019-04-29T07:46:56.125Z,98719.00
2019-04-29T07:49:17.183Z,98718.00
2019-04-29T07:51:45.273Z,98723.00
2019-04-29T07:54:15.863Z,98717.00
2019-04-29T07:56:45.566Z,98711.00
2019-04-29T07:59:14.861Z,98714.00
2019-04-29T08:01:44.146Z,98711.00
2019-04-29T08:04:13.420Z,98710.00
2019-04-29T08:06:44.861Z,98712.00
2019-04-29T08:09:14.199Z,98723.00
2019-04-29T08:11:43.488Z,98725.00
2019-04-29T08:14:13.196Z,98727.00
2019-04-29T08:16:42.475Z,98723.00
2019-04-29T08:19:11.757Z,98714.00
2019-04-29T08:21:41.027Z,98720.00
2019-04-29T08:24:11.586Z,98725.00
2019-04-29T08:26:47.107Z,98728.00
2019-04-29T08:29:12.303Z,98716.00
2019-04-29T08:31:41.597Z,98720.00
2019-04-29T08:34:10.876Z,98723.00
2019-04-29T08:36:40.158Z,98720.00
2019-04-29T08:39:09.855Z,98736.00
2019-04-29T08:41:39.144Z,98733.00
2019-04-29T08:44:16.431Z,98726.00
2019-04-29T08:46:53.920Z,98728.00
2019-04-29T08:49:23.203Z,98730.00
2019-04-29T08:51:52.488Z,98730.00
2019-04-29T08:54:21.761Z,98725.00
2019-04-29T08:57:02.214Z,98733.00
2019-04-29T08:59:24.590Z,98736.00
2019-04-29T09:01:53.328Z,98739.00
2019-04-29T09:04:22.598Z,98730.00
2019-04-29T09:06:52.237Z,98727.00
2019-04-29T09:09:29.106Z,98725.00
2019-04-29T09:11:52.511Z,98733.00
2019-04-29T09:14:22.075Z,98728.00
2019-04-29T09:16:51.348Z,98717.00
2019-04-29T09:19:20.997Z,98724.00
2019-04-29T09:21:51.927Z,98717.00
2019-04-29T09:24:21.531Z,98720.00
2019-04-29T09:26:55.352Z,98710.00
2019-04-29T09:29:31.442Z,98715.00
2019-04-29T09:32:02.000Z,98711.00
2019-04-29T09:34:31.447Z,98712.00
2019-04-29T09:37:00.727Z,98723.00
2019-04-29T09:39:42.327Z,98705.00
2019-04-29T09:42:18.588Z,98706.00
2019-04-29T09:44:49.500Z,98709.00
2019-04-29T09:47:18.860Z,98710.00
2019-04-29T09:49:48.432Z,98707.00
2019-04-29T09:52:18.042Z,98712.00
2019-04-29T09:54:47.646Z,98710.00
2019-04-29T09:57:17.001Z,98707.00
2019-04-29T09:59:47.916Z,98700.00
2019-04-29T10:02:26.357Z,98699.00
2019-04-29T10:05:07.273Z,98699.00
2019-04-29T10:07:36.632Z,98694.00
2019-04-29T10:10:09.259Z,98698.00
2019-04-29T10:12:38.863Z,98694.00
2019-04-29T10:15:10.360Z,98678.00
2019-04-29T10:17:53.571Z,98685.00
2019-04-29T10:20:23.162Z,98680.00
2019-04-29T10:22:53.756Z,98674.00
2019-04-29T10:25:24.305Z,98677.00
2019-04-29T10:27:53.574Z,98672.00
2019-04-29T10:30:26.857Z,98680.00
2019-04-29T10:32:55.790Z,98675.00
2019-04-29T10:35:25.398Z,98659.00
2019-04-29T10:37:54.682Z,98656.00
2019-04-29T10:40:45.988Z,98658.00
2019-04-29T10:43:19.713Z,98650.00
2019-04-29T10:45:59.877Z,98643.00
2019-04-29T10:48:34.095Z,98643.00
2019-04-29T10:51:05.012Z,98649.00
2019-04-29T10:53:35.148Z,98649.00
2019-04-29T10:56:05.729Z,98642.00
2019-04-29T10:58:36.116Z,98645.00
2019-04-29T11:01:32.776Z,98642.00
2019-04-29T11:04:02.857Z,98639.00
2019-04-29T11:06:35.982Z,98638.00
2019-04-29T11:09:09.591Z,98642.00
2019-04-29T11:11:40.293Z,98637.00
2019-04-29T11:14:09.742Z,98628.00
2019-04-29T11:16:46.537Z,98627.00
2019-04-29T11:19:10.083Z,98610.00
2019-04-29T11:21:39.530Z,98609.00
2019-04-29T11:24:28.811Z,98620.00
2019-04-29T11:27:11.269Z,98608.00
2019-04-29T11:29:30.797Z,98605.00
2019-04-29T11:32:01.782Z,98601.00
2019-04-29T11:34:48.457Z,98598.00
2019-04-29T11:37:19.572Z,98595.00
2019-04-29T11:39:50.334Z,98597.00
2019-04-29T11:42:20.026Z,98595.00
2019-04-29T11:44:49.317Z,98595.00
2019-04-29T11:47:20.915Z,98594.00
2019-04-29T11:49:56.755Z,98593.00
2019-04-29T11:52:28.101Z,98588.00
2019-04-29T11:54:57.342Z,98586.00
2019-04-29T11:57:40.748Z,98583.00
2019-04-29T12:00:19.029Z,98573.00
2019-04-29T12:02:50.274Z,98565.00
2019-04-29T12:05:21.196Z,98571.00
2019-04-29T12:07:50.817Z,98571.00
2019-04-29T12:10:20.422Z,98570.00
2019-04-29T12:12:50.221Z,98571.00
2019-04-29T12:15:24.560Z,98569.00
2019-04-29T12:17:58.113Z,98576.00
2019-04-29T12:20:29.036Z,98571.00
2019-04-29T12:22:58.309Z,98575.00
2019-04-29T12:25:29.324Z,98571.00
2019-04-29T12:28:01.702Z,98566.00
2019-04-29T12:30:34.615Z,98563.00
2019-04-29T12:33:07.270Z,98555.00
2019-04-29T12:35:51.878Z,98562.00
2019-04-29T12:38:39.797Z,98562.00
2019-04-29T12:41:02.107Z,98569.00
2019-04-29T12:43:35.594Z,98558.00
2019-04-29T12:46:10.364Z,98562.00
2019-04-29T12:48:39.838Z,98557.00
2019-04-29T12:51:09.182Z,98553.00
2019-04-29T12:53:38.453Z,98552.00
2019-04-29T12:56:11.416Z,98547.00
2019-04-29T12:58:39.559Z,98546.00
2019-04-29T13:01:50.204Z,98547.00
2019-04-29T13:04:15.942Z,98554.00
2019-04-29T13:06:50.007Z,98546.00
2019-04-29T13:09:30.157Z,98541.00
2019-04-29T13:12:17.637Z,98548.00
2019-04-29T13:14:33.279Z,98534.00
2019-04-29T13:17:14.788Z,98539.00
2019-04-29T13:20:02.403Z,98527.00
2019-04-29T13:22:31.882Z,98528.00
2019-04-29T13:25:01.165Z,98534.00
2019-04-29T13:27:30.452Z,98526.00
2019-04-29T13:29:59.750Z,98528.00
2019-04-29T13:32:29.870Z,98519.00
2019-04-29T13:35:05.223Z,98538.00
2019-04-29T13:37:32.675Z,98524.00
2019-04-29T13:40:01.954Z,98516.00
2019-04-29T13:42:31.233Z,98513.00
2019-04-29T13:45:07.754Z,98510.00
2019-04-29T13:47:33.157Z,98515.00
2019-04-29T13:50:18.064Z,98512.00
2019-04-29T13:52:37.773Z,98502.00
2019-04-29T13:55:17.023Z,98502.00
2019-04-29T13:57:38.386Z,98499.00
2019-04-29T14:00:12.453Z,98502.00
2019-04-29T14:02:59.359Z,98502.00
2019-04-29T14:05:32.501Z,98484.00
2019-04-29T14:08:00.354Z,98491.00
2019-04-29T14:10:29.953Z,98483.00
2019-04-29T14:13:09.848Z,98484.00
2019-04-29T14:15:33.991Z,98471.00
2019-04-29T14:18:01.506Z,98478.00
2019-04-29T14:20:31.154Z,98488.00
2019-04-29T14:23:00.431Z,98478.00
2019-04-29T14:25:29.701Z,98482.00
2019-04-29T14:27:59.461Z,98478.00
2019-04-29T14:30:38.367Z,98478.00
2019-04-29T14:33:02.101Z,98473.00
2019-04-29T14:35:36.101Z,98466.00
2019-04-29T14:38:05.238Z,98477.00
2019-04-29T14:40:39.017Z,98472.00
2019-04-29T14:43:31.247Z,98481.00
2019-04-29T14:46:05.363Z,98485.00
2019-04-29T14:48:42.686Z,98473.00
2019-04-29T14:51:12.029Z,98478.00
2019-04-29T14:53:55.092Z,98487.00
2019-04-29T14:56:15.579Z,98492.00
2019-04-29T14:58:43.372Z,98485.00
2019-04-29T15:01:14.323Z,98488.00
2019-04-29T15:03:51.367Z,98481.00
2019-04-29T15:06:20.730Z,98484.00
2019-04-29T15:08:50.055Z,98482.00
2019-04-29T15:11:31.507Z,98481.00
2019-04-29T15:13:59.600Z,98481.00
2019-04-29T15:16:36.567Z,98481.00
2019-04-29T15:19:12.957Z,98475.00
2019-04-29T15:21:43.805Z,98477.00
2019-04-29T15:24:11.380Z,98482.00
2019-04-29T15:26:40.670Z,98476.00
2019-04-29T15:29:09.948Z,98477.00
2019-04-29T15:31:42.441Z,98477.00
2019-04-29T15:34:14.156Z,98475.00
2019-04-29T15:36:42.027Z,98471.00
2019-04-29T15:39:12.379Z,98475.00
2019-04-29T15:41:42.206Z,98480.00
2019-04-29T15:44:18.827Z,98479.00
2019-04-29T15:46:46.677Z,98481.00
2019-04-29T15:49:13.617Z,98465.00
2019-04-29T15:51:44.038Z,98463.00
2019-04-29T15:54:14.577Z,98479.00
2019-04-29T15:56:45.081Z,98477.00
2019-04-29T15:59:14.447Z,98474.00
2019-04-29T16:01:44.113Z,98483.00
2019-04-29T16:04:15.123Z,98484.00
2019-04-29T16:06:48.767Z,98482.00
2019-04-29T16:09:51.021Z,98484.00
2019-04-29T16:12:14.504Z,98480.00
2019-04-29T16:14:41.281Z,98500.00
2019-04-29T16:17:10.553Z,98496.00
2019-04-29T16:19:39.835Z,98503.00
2019-04-29T16:22:13.016Z,98500.00
2019-04-29T16:24:40.117Z,98504.00
2019-04-29T16:27:10.503Z,98508.00
2019-04-29T16:29:39.868Z,98494.00
2019-04-29T16:32:10.837Z,98502.00
2019-04-29T16:34:45.119Z,98488.00
2019-04-29T16:37:11.116Z,98489.00
2019-04-29T16:39:40.464Z,98499.00
2019-04-29T16:42:14.201Z,98493.00
2019-04-29T16:44:44.828Z,98492.00
2019-04-29T16:47:15.674Z,98497.00
2019-04-29T16:49:45.184Z,98493.00
2019-04-29T16:52:14.461Z,98497.00
2019-04-29T16:54:43.733Z,98491.00
2019-04-29T16:57:13.180Z,98492.00
2019-04-29T16:59:42.533Z,98499.00
2019-04-29T17:02:18.952Z,98504.00
2019-04-29T17:04:42.821Z,98494.00
2019-04-29T17:07:14.001Z,98505.00
2019-04-29T17:09:45.061Z,98510.00
2019-04-29T17:12:14.400Z,98500.00
2019-04-29T17:17:16.639Z,98515.00
2019-04-29T17:19:45.920Z,98518.00
2019-04-29T17:22:25.472Z,98519.00
2019-04-29T17:24:46.880Z,98513.00
2019-04-29T17:27:20.686Z,98516.00
2019-04-29T17:30:03.748Z,98520.00
2019-04-29T17:32:44.037Z,98515.00
2019-04-29T17:35:09.009Z,98518.00
2019-04-29T17:35:19.043Z,98505.00
2019-04-29T17:37:38.492Z,98521.00
2019-04-29T17:40:11.022Z,98519.00
2019-04-29T17:42:41.937Z,98518.00
2019-04-29T17:45:27.062Z,98521.00
2019-04-29T17:47:51.882Z,98522.00
2019-04-29T17:50:29.932Z,98519.00
2019-04-29T17:52:53.822Z,98517.00
2019-04-29T17:55:38.116Z,98521.00
2019-04-29T17:58:21.140Z,98524.00
2019-04-29T18:01:01.161Z,98518.00
2019-04-29T18:03:42.704Z,98526.00
2019-04-29T18:06:17.251Z,98520.00
2019-04-29T18:09:02.582Z,98529.00
2019-04-29T18:11:31.856Z,98521.00
2019-04-29T18:14:01.131Z,98534.00
2019-04-29T18:16:32.044Z,98534.00
2019-04-29T18:19:02.958Z,98534.00
2019-04-29T18:21:49.962Z,98535.00
2019-04-29T18:24:25.243Z,98536.00
2019-04-29T18:26:58.900Z,98540.00
2019-04-29T18:29:28.174Z,98539.00
2019-04-29T18:32:00.492Z,98538.00
2019-04-29T18:34:29.309Z,98538.00
2019-04-29T18:37:00.447Z,98535.00
2019-04-29T18:39:31.685Z,98548.00
2019-04-29T18:42:03.345Z,98542.00
2019-04-29T18:44:32.090Z,98543.00
2019-04-29T18:47:01.369Z,98544.00
2019-04-29T18:49:30.636Z,98550.00
2019-04-29T18:52:02.307Z,98542.00
2019-04-29T18:54:30.912Z,98544.00
2019-04-29T18:57:00.187Z,98539.00
2019-04-29T18:59:33.453Z,98547.00
2019-04-29T19:05:05.307Z,98550.00
2019-04-29T19:10:49.874Z,98555.00
2019-04-29T19:16:31.756Z,98550.00
2019-04-29T19:19:02.010Z,98545.00
2019-04-29T19:21:31.698Z,98553.00
2019-04-29T19:24:01.013Z,98547.00
2019-04-29T19:26:30.293Z,98553.00
2019-04-29T19:29:01.285Z,98559.00
2019-04-29T19:31:30.829Z,98564.00
2019-04-29T19:34:00.461Z,98562.00
2019-04-29T19:36:29.706Z,98564.00
2019-04-29T19:38:58.973Z,98561.00
2019-04-29T19:41:28.542Z,98561.00
2019-04-29T19:43:58.151Z,98558.00
2019-04-29T19:46:36.729Z,98554.00
2019-04-29T19:49:07.511Z,98553.00
2019-04-29T19:51:30.092Z,98558.00
2019-04-29T19:53:59.351Z,98545.00
2019-04-29T19:56:28.979Z,98550.00
2019-04-29T19:59:03.133Z,98556.00
2019-04-29T20:01:32.213Z,98542.00
2019-04-29T20:04:22.248Z,98545.00
2019-04-29T20:06:50.768Z,98547.00
2019-04-29T20:09:23.597Z,98544.00
2019-04-29T20:11:55.511Z,98548.00
2019-04-29T20:14:27.836Z,98538.00
2019-04-29T20:17:09.859Z,98541.00
2019-04-29T20:19:42.374Z,98542.00
2019-04-29T20:22:12.266Z,98544.00
2019-04-29T20:24:41.724Z,98537.00
2019-04-29T20:27:11.270Z,98529.00
2019-04-29T20:29:40.762Z,98537.00
2019-04-29T20:32:10.304Z,98524.00
2019-04-29T20:34:39.808Z,98514.00
2019-04-29T20:37:10.781Z,98520.00
2019-04-29T20:39:40.345Z,98515.00
2019-04-29T20:42:10.609Z,98503.00
2019-04-29T20:44:44.763Z,98508.00
2019-04-29T20:47:22.733Z,98507.00
2019-04-29T20:49:42.275Z,98498.00
2019-04-29T20:52:18.350Z,98501.00
2019-04-29T20:54:45.217Z,98496.00
2019-04-29T20:57:20.643Z,98492.00
2019-04-29T20:59:50.148Z,98491.00
2019-04-29T21:02:29.439Z,98486.00
2019-04-29T21:04:48.511Z,98482.00
2019-04-29T21:07:23.818Z,98479.00
2019-04-29T21:09:48.914Z,98471.00
2019-04-29T21:12:20.654Z,98475.00
2019-04-29T21:14:51.716Z,98474.00
2019-04-29T21:17:31.218Z,98477.00
2019-04-29T21:19:51.997Z,98480.00
2019-04-29T21:22:23.638Z,98481.00
2019-04-29T21:24:53.815Z,98482.00
2019-04-29T21:27:24.150Z,98477.00
2019-04-29T21:29:55.407Z,98480.00
2019-04-29T21:32:25.814Z,98473.00
2019-04-29T21:35:16.916Z,98471.00
2019-04-29T21:37:48.656Z,98461.00
2019-04-29T21:40:28.664Z,98453.00
2019-04-29T21:42:59.596Z,98453.00
2019-04-29T21:45:28.853Z,98456.00
2019-04-29T21:47:58.128Z,98460.00
2019-04-29T21:50:33.891Z,98460.00
2019-04-29T21:53:02.022Z,98453.00
2019-04-29T21:55:29.640Z,98460.00
2019-04-29T21:58:00.175Z,98456.00
2019-04-29T22:00:29.603Z,98449.00
2019-04-29T22:02:59.224Z,98456.00
2019-04-29T22:05:28.825Z,98453.00
2019-04-29T22:07:58.176Z,98451.00
2019-04-29T22:10:29.076Z,98449.00
2019-04-29T22:13:02.100Z,98450.00
2019-04-29T22:15:33.199Z,98450.00
2019-04-29T22:18:01.799Z,98444.00
2019-04-29T22:20:35.673Z,98442.00
2019-04-29T22:23:08.413Z,98446.00
2019-04-29T22:25:36.518Z,98439.00
2019-04-29T22:28:06.249Z,98453.00
2019-04-29T22:30:35.858Z,98451.00
2019-04-29T22:33:05.469Z,98456.00
2019-04-29T22:35:37.196Z,98449.00
2019-04-29T22:38:07.816Z,98455.00
2019-04-29T22:40:40.908Z,98458.00
2019-04-29T22:43:19.100Z,98453.00
2019-04-29T22:45:48.658Z,98459.00
2019-04-29T22:48:19.815Z,98455.00
2019-04-29T22:50:49.518Z,98452.00
2019-04-29T22:53:18.788Z,98450.00
2019-04-29T22:55:48.318Z,98451.00
2019-04-29T22:58:17.933Z,98447.00
2019-04-29T23:00:47.534Z,98449.00
2019-04-29T23:03:17.142Z,98448.00
2019-04-29T23:05:46.751Z,98453.00
2019-04-29T23:08:16.023Z,98434.00
2019-04-29T23:10:45.689Z,98438.00
2019-04-29T23:13:15.162Z,98439.00
2019-04-29T23:15:45.566Z,98438.00
2019-04-29T23:18:24.311Z,98431.00
2019-04-29T23:20:47.882Z,98431.00
2019-04-29T23:23:18.788Z,98430.00
2019-04-29T23:25:52.932Z,98433.00
2019-04-29T23:28:26.890Z,98435.00
2019-04-29T23:30:54.398Z,98435.00
2019-04-29T23:33:25.926Z,98431.00
2019-04-29T23:35:56.046Z,98429.00
2019-04-29T23:38:25.785Z,98426.00
2019-04-29T23:40:56.433Z,98428.00
2019-04-29T23:43:28.366Z,98427.00
2019-04-29T23:46:00.566Z,98424.00
2019-04-29T23:48:38.834Z,98423.00
2019-04-29T23:50:59.113Z,98416.00
2019-04-29T23:53:28.650Z,98407.00
2019-04-29T23:56:00.124Z,98404.00
2019-04-29T23:58:40.253Z,98414.00
